Time;durP1;ratioP1;P1;durP2;ratioP2;P2;SDS_P1;SDS_P2;PMS_P1;PMS_P2;Temp;Humidity;BMP_temperature;BMP_pressure;BME280_temperature;BME280_humidity;BME280_pressure;Samples;Min_cycle;Max_cycle;Signal;HPM_P1;HPM_P2
2022/10/20 00:01:50;;;;;;;6.13;2.10;;;7.00;99.90;;;;;;5220793;28;20028;-74
2022/10/20 00:04:22;;;;;;;2.90;1.98;;;6.90;99.90;;;;;;5214546;28;20074;-74
2022/10/20 00:06:53;;;;;;;2.45;2.10;;;6.80;99.90;;;;;;5196800;28;20051;-74
2022/10/20 00:09:29;;;;;;;4.13;2.03;;;6.70;99.90;;;;;;5159560;28;20056;-75
2022/10/20 00:12:01;;;;;;;3.15;2.25;;;6.60;99.90;;;;;;5196159;28;20071;-74
2022/10/20 00:14:32;;;;;;;3.60;2.10;;;6.50;99.90;;;;;;5186382;28;20344;-74
2022/10/20 00:17:04;;;;;;;4.60;2.45;;;6.40;99.90;;;;;;5202366;28;20044;-74
2022/10/20 00:19:38;;;;;;;2.85;2.10;;;6.40;99.90;;;;;;5198956;28;20191;-74
2022/10/20 00:22:09;;;;;;;2.30;2.10;;;6.40;99.90;;;;;;5217713;28;20032;-74
2022/10/20 00:24:41;;;;;;;2.22;1.80;;;6.40;99.90;;;;;;5219825;28;20028;-74
2022/10/20 00:27:14;;;;;;;2.22;1.85;;;6.40;99.90;;;;;;5219300;28;20309;-74
2022/10/20 00:29:53;;;;;;;6.57;2.50;;;6.50;99.90;;;;;;5220949;28;20025;-75
2022/10/20 00:32:24;;;;;;;2.42;1.75;;;6.40;99.90;;;;;;5183445;28;20534;-73
2022/10/20 00:34:57;;;;;;;4.97;2.53;;;6.40;99.90;;;;;;5186337;28;20029;-75
2022/10/20 00:37:28;;;;;;;3.63;1.85;;;6.40;99.90;;;;;;5197952;28;20048;-74
2022/10/20 00:40:02;;;;;;;2.28;1.83;;;6.40;99.90;;;;;;5181919;28;20030;-74
2022/10/20 00:42:34;;;;;;;;;;;6.40;99.90;;;;;;5216726;28;20265;-74
2022/10/20 00:45:18;;;;;;;2.60;1.98;;;6.40;99.90;;;;;;5218073;28;19908;-74
2022/10/20 00:47:58;;;;;;;;;;;6.40;99.90;;;;;;5218919;28;20021;-74
2022/10/20 00:50:40;;;;;;;2.72;1.90;;;6.40;99.90;;;;;;5232939;28;20285;-73
2022/10/20 00:53:14;;;;;;;4.45;2.08;;;6.40;99.90;;;;;;5201655;28;20027;-73
2022/10/20 00:55:49;;;;;;;4.32;2.50;;;6.40;99.90;;;;;;5205463;28;20227;-74
2022/10/20 00:58:20;;;;;;;1.98;1.80;;;6.40;99.90;;;;;;5219127;28;20040;-73
2022/10/20 01:00:55;;;;;;;4.65;2.22;;;6.40;99.90;;;;;;5219432;28;20024;-74
2022/10/20 01:03:38;;;;;;;3.28;2.03;;;6.50;99.90;;;;;;5206707;28;20048;-74
2022/10/20 01:06:11;;;;;;;1.90;1.70;;;6.60;99.90;;;;;;5227877;28;20153;-74
2022/10/20 01:08:43;;;;;;;2.17;1.60;;;6.60;99.90;;;;;;5210230;28;20025;-75
2022/10/20 01:11:26;;;;;;;3.08;1.60;;;6.50;99.90;;;;;;5238284;28;20037;-73
2022/10/20 01:14:08;;;;;;;3.88;1.88;;;6.50;99.90;;;;;;5216148;28;20252;-75
2022/10/20 01:17:02;;;;;;;2.75;1.50;;;6.40;99.90;;;;;;5214565;28;20506;-73
2022/10/20 01:20:13;;;;;;;7.47;1.83;;;6.30;99.90;;;;;;5181058;28;20378;-74
2022/10/20 01:23:21;;;;;;;2.60;2.10;;;6.40;99.90;;;;;;5200243;28;20021;-75
2022/10/20 01:26:16;;;;;;;2.58;2.10;;;6.30;99.90;;;;;;5219174;28;20033;-75
2022/10/20 01:29:02;;;;;;;2.45;2.05;;;6.40;99.90;;;;;;5218735;28;20051;-75
2022/10/20 01:31:45;;;;;;;2.55;1.95;;;6.30;99.90;;;;;;5218082;28;20062;-76
2022/10/20 01:34:32;;;;;;;4.90;2.20;;;6.30;99.90;;;;;;5221472;28;20033;-73
2022/10/20 01:37:31;;;;;;;4.28;2.38;;;6.30;99.90;;;;;;5207748;28;20035;-76
2022/10/20 01:40:26;;;;;;;2.85;2.22;;;6.20;99.90;;;;;;5218771;28;20214;-74
2022/10/20 01:43:05;;;;;;;2.30;1.90;;;6.20;99.90;;;;;;5201983;28;20318;-74
2022/10/20 01:45:44;;;;;;;3.85;2.40;;;6.10;99.90;;;;;;5195828;28;20031;-74
2022/10/20 01:48:20;;;;;;;3.05;2.00;;;6.10;99.90;;;;;;5180053;28;20033;-75
2022/10/20 01:50:51;;;;;;;2.25;2.00;;;6.00;99.90;;;;;;5220535;28;20314;-74
2022/10/20 01:53:25;;;;;;;2.85;2.20;;;6.00;99.90;;;;;;5228013;28;20316;-75
2022/10/20 01:56:00;;;;;;;2.45;2.00;;;5.90;99.90;;;;;;5180711;28;20335;-74
2022/10/20 01:58:46;;;;;;;4.03;2.28;;;5.90;99.90;;;;;;5192430;28;20033;-74
2022/10/20 02:01:31;;;;;;;2.40;2.08;;;5.90;99.90;;;;;;5220959;28;20033;-75
2022/10/20 02:04:03;;;;;;;;;;;5.90;99.90;;;;;;5222440;28;20040;-75
2022/10/20 02:06:48;;;;;;;2.80;2.28;;;5.90;99.90;;;;;;5207602;28;19909;-75
2022/10/20 02:09:44;;;;;;;3.47;2.33;;;5.80;99.90;;;;;;5200169;28;20036;-75
2022/10/20 02:12:28;;;;;;;3.45;2.10;;;5.80;99.90;;;;;;5209715;28;20338;-74
2022/10/20 02:15:01;;;;;;;4.13;2.50;;;5.80;99.90;;;;;;5199309;28;20029;-74
2022/10/20 02:17:35;;;;;;;2.35;1.80;;;5.80;99.90;;;;;;5216649;28;20230;-74
2022/10/20 02:20:09;;;;;;;4.45;2.30;;;5.80;99.90;;;;;;5200261;28;20068;-74
2022/10/20 02:22:43;;;;;;;2.53;2.30;;;5.80;99.90;;;;;;5215496;28;20024;-74
2022/10/20 02:25:18;;;;;;;3.67;2.53;;;5.70;99.90;;;;;;5221529;28;20028;-75
2022/10/20 02:27:56;;;;;;;2.92;2.15;;;5.60;99.90;;;;;;5201259;28;20025;-75
2022/10/20 02:30:31;;;;;;;2.65;2.15;;;5.60;99.90;;;;;;5200517;28;20031;-73
2022/10/20 02:33:03;;;;;;;3.75;2.00;;;5.50;99.90;;;;;;5218023;28;20033;-74
2022/10/20 02:35:36;;;;;;;3.30;1.88;;;5.50;99.90;;;;;;5218191;28;20029;-74
2022/10/20 02:38:08;;;;;;;3.42;2.30;;;5.60;99.90;;;;;;5190596;28;20035;-75
2022/10/20 02:40:39;;;;;;;3.58;2.20;;;5.60;99.90;;;;;;5218658;28;20035;-75
2022/10/20 02:43:13;;;;;;;4.32;2.22;;;5.60;99.90;;;;;;5216110;28;20032;-74
2022/10/20 02:45:47;;;;;;;;;;;5.50;99.90;;;;;;5215664;28;20028;-74
2022/10/20 02:48:18;;;;;;;4.50;2.20;;;5.50;99.90;;;;;;5218058;28;19912;-73
2022/10/20 02:50:50;;;;;;;2.63;1.98;;;5.40;99.90;;;;;;5195804;28;20031;-72
2022/10/20 02:53:21;;;;;;;3.03;2.40;;;5.40;99.90;;;;;;5196746;28;20035;-74
2022/10/20 02:55:54;;;;;;;4.13;2.40;;;5.40;99.90;;;;;;5200097;28;20043;-74
2022/10/20 02:58:25;;;;;;;4.53;2.40;;;5.40;99.90;;;;;;5201657;28;20239;-74
2022/10/20 03:01:03;;;;;;;4.13;2.20;;;5.50;99.90;;;;;;5210815;28;20021;-74
2022/10/20 03:03:34;;;;;;;2.40;2.13;;;5.40;99.90;;;;;;5184423;28;20067;-73
2022/10/20 03:06:12;;;;;;;3.40;2.67;;;5.40;99.90;;;;;;5210042;28;20045;-73
2022/10/20 03:08:43;;;;;;;4.60;2.80;;;5.30;99.90;;;;;;5203620;28;20203;-76
2022/10/20 03:11:14;;;;;;;4.90;2.50;;;5.30;99.90;;;;;;5203571;28;20111;-73
2022/10/20 03:13:46;;;;;;;2.95;2.53;;;5.30;99.90;;;;;;5220956;28;20036;-74
2022/10/20 03:16:19;;;;;;;3.65;2.42;;;5.20;99.90;;;;;;5221554;28;20031;-74
2022/10/20 03:18:52;;;;;;;3.15;2.17;;;5.20;99.90;;;;;;5193163;28;20228;-74
2022/10/20 03:21:23;;;;;;;3.25;2.63;;;5.20;99.90;;;;;;5219260;28;20593;-74
2022/10/20 03:23:55;;;;;;;3.13;2.47;;;5.20;99.90;;;;;;5221928;28;20029;-75
2022/10/20 03:26:26;;;;;;;4.55;2.85;;;5.20;99.90;;;;;;5221136;28;20027;-73
2022/10/20 03:29:00;;;;;;;4.18;2.70;;;5.20;99.90;;;;;;5203159;28;20039;-75
2022/10/20 03:31:31;;;;;;;4.20;2.35;;;5.20;99.90;;;;;;5221489;28;20031;-74
2022/10/20 03:34:07;;;;;;;3.60;2.40;;;5.20;99.90;;;;;;5216621;28;20037;-73
2022/10/20 03:36:40;;;;;;;2.30;2.10;;;5.30;99.90;;;;;;5220641;28;20039;-74
2022/10/20 03:39:14;;;;;;;5.38;3.63;;;5.30;99.90;;;;;;5203562;28;20301;-74
2022/10/20 03:41:45;;;;;;;5.60;2.60;;;5.30;99.90;;;;;;5218497;28;20031;-74
2022/10/20 03:44:18;;;;;;;3.95;2.63;;;5.20;99.90;;;;;;5221276;28;20032;-74
2022/10/20 03:46:52;;;;;;;4.65;2.92;;;5.20;99.90;;;;;;5223732;28;20360;-75
2022/10/20 03:49:23;;;;;;;7.15;2.67;;;5.20;99.90;;;;;;5226297;28;20090;-75
2022/10/20 03:51:59;;;;;;;5.53;2.85;;;5.10;99.90;;;;;;5220860;28;20243;-75
2022/10/20 03:54:32;;;;;;;5.63;3.20;;;5.10;99.90;;;;;;5202699;28;20041;-75
2022/10/20 03:57:07;;;;;;;3.35;2.40;;;5.20;99.90;;;;;;5221204;28;20025;-75
2022/10/20 03:59:42;;;;;;;3.05;2.65;;;5.20;99.90;;;;;;5220557;28;20041;-75
2022/10/20 04:02:34;;;;;;;4.55;3.20;;;5.10;99.90;;;;;;5202589;28;20322;-75
2022/10/20 04:05:07;;;;;;;3.25;2.40;;;5.10;99.90;;;;;;5192930;28;20368;-76
2022/10/20 04:07:38;;;;;;;5.40;2.27;;;5.10;99.90;;;;;;5214960;28;20146;-75
2022/10/20 04:10:13;;;;;;;3.92;2.97;;;5.00;99.90;;;;;;5204035;28;20025;-75
2022/10/20 04:12:44;;;;;;;5.03;2.85;;;5.00;99.90;;;;;;5195603;28;20082;-75
2022/10/20 04:15:17;;;;;;;9.02;2.90;;;4.90;99.90;;;;;;5223607;28;20031;-76
2022/10/20 04:17:48;;;;;;;5.75;2.97;;;4.90;99.90;;;;;;5222449;28;20179;-75
2022/10/20 04:20:21;;;;;;;5.18;2.88;;;4.80;99.90;;;;;;5202028;28;20390;-75
2022/10/20 04:22:56;;;;;;;5.22;3.03;;;4.70;99.90;;;;;;5199590;28;20309;-76
2022/10/20 04:25:27;;;;;;;3.90;3.00;;;4.60;99.90;;;;;;5201233;28;20455;-75
2022/10/20 04:27:59;;;;;;;7.20;4.65;;;4.60;99.90;;;;;;5214659;28;20143;-76
2022/10/20 04:30:30;;;;;;;4.75;3.58;;;4.50;99.90;;;;;;5215645;28;20028;-75
2022/10/20 04:33:04;;;;;;;6.68;3.55;;;4.50;99.90;;;;;;5202430;28;20025;-76
2022/10/20 04:35:35;;;;;;;5.05;3.70;;;4.50;99.90;;;;;;5182299;28;20212;-76
2022/10/20 04:38:09;;;;;;;5.65;3.30;;;4.40;99.90;;;;;;5214526;28;20326;-74
2022/10/20 04:40:40;;;;;;;;;;;4.30;99.90;;;;;;5208775;28;20047;-75
2022/10/20 04:43:14;;;;;;;3.85;2.97;;;4.30;99.90;;;;;;5218828;28;19901;-75
2022/10/20 04:45:45;;;;;;;4.80;3.35;;;4.30;99.90;;;;;;5216478;28;20032;-75
2022/10/20 04:48:17;;;;;;;6.13;3.33;;;4.20;99.90;;;;;;5236982;28;20029;-76
2022/10/20 04:51:07;;;;;;;11.55;5.88;;;4.20;99.90;;;;;;5218385;28;20028;-73
2022/10/20 04:53:39;;;;;;;6.38;4.30;;;4.10;99.90;;;;;;5200986;28;20029;-76
2022/10/20 04:56:17;;;;;;;5.07;3.67;;;4.00;99.90;;;;;;5219129;28;20040;-75
2022/10/20 04:58:54;;;;;;;6.20;4.35;;;4.00;99.90;;;;;;5220097;28;20186;-76
2022/10/20 05:01:30;;;;;;;7.13;4.22;;;3.90;99.90;;;;;;5201930;28;20242;-75
2022/10/20 05:04:01;;;;;;;7.47;4.57;;;3.80;99.90;;;;;;5219569;28;20028;-74
2022/10/20 05:06:33;;;;;;;6.35;3.75;;;3.90;99.90;;;;;;5213802;28;20278;-75
2022/10/20 05:09:06;;;;;;;8.38;5.80;;;3.90;99.90;;;;;;5197895;28;20039;-75
2022/10/20 05:11:37;;;;;;;9.18;5.95;;;3.90;99.90;;;;;;5183870;28;20394;-75
2022/10/20 05:14:11;;;;;;;8.45;4.60;;;3.90;99.90;;;;;;5184419;28;20036;-74
2022/10/20 05:16:44;;;;;;;6.07;4.03;;;3.90;99.90;;;;;;5219757;28;20345;-77
2022/10/20 05:19:16;;;;;;;9.25;4.70;;;3.80;99.90;;;;;;5184068;28;20039;-75
2022/10/20 05:21:49;;;;;;;11.82;4.80;;;3.80;99.90;;;;;;5201720;28;20183;-74
2022/10/20 05:24:31;;;;;;;8.93;4.75;;;3.80;99.90;;;;;;5219316;28;20025;-75
2022/10/20 05:27:02;;;;;;;7.20;4.15;;;3.80;99.90;;;;;;5224947;28;20027;-74
2022/10/20 05:29:34;;;;;;;7.82;4.60;;;3.90;99.90;;;;;;5201230;28;20037;-74
2022/10/20 05:32:05;;;;;;;8.98;4.55;;;3.90;99.90;;;;;;5214917;28;20298;-74
2022/10/20 05:34:37;;;;;;;11.13;4.80;;;4.00;99.90;;;;;;5215144;28;20363;-74
2022/10/20 05:37:09;;;;;;;11.48;4.60;;;3.90;99.90;;;;;;5218280;28;20342;-75
2022/10/20 05:39:41;;;;;;;10.85;5.45;;;3.90;99.90;;;;;;5225905;28;20051;-74
2022/10/20 05:42:15;;;;;;;10.40;6.20;;;3.90;99.90;;;;;;5238002;28;20199;-75
2022/10/20 05:44:46;;;;;;;8.35;5.43;;;4.00;99.90;;;;;;5218525;28;20306;-76
2022/10/20 05:47:17;;;;;;;12.88;5.45;;;4.00;99.90;;;;;;5189549;28;20048;-73
2022/10/20 05:49:51;;;;;;;7.55;4.85;;;4.10;99.90;;;;;;5203454;28;20044;-74
2022/10/20 05:52:28;;;;;;;9.70;5.18;;;4.20;99.90;;;;;;5223134;28;20033;-76
2022/10/20 05:55:02;;;;;;;7.15;5.03;;;4.40;99.90;;;;;;5214932;28;20036;-75
2022/10/20 05:57:33;;;;;;;8.35;5.25;;;4.40;99.90;;;;;;5187163;28;20035;-78
2022/10/20 06:00:08;;;;;;;8.57;5.07;;;4.50;99.90;;;;;;5216496;28;20057;-74
2022/10/20 06:02:39;;;;;;;7.32;5.80;;;4.60;99.90;;;;;;5216264;28;20052;-75
2022/10/20 06:05:13;;;;;;;8.25;4.78;;;4.80;99.90;;;;;;5197718;28;20033;-74
2022/10/20 06:07:47;;;;;;;10.60;5.78;;;5.00;99.90;;;;;;5239195;28;20474;-74
2022/10/20 06:10:21;;;;;;;12.82;6.10;;;5.20;99.90;;;;;;5208178;28;20031;-75
2022/10/20 06:12:58;;;;;;;11.35;6.57;;;5.40;99.90;;;;;;5208557;28;20037;-74
2022/10/20 06:15:31;;;;;;;8.27;5.35;;;5.60;99.90;;;;;;5179172;28;20052;-75
2022/10/20 06:18:04;;;;;;;8.80;5.15;;;5.80;99.90;;;;;;5201650;28;20086;-75
2022/10/20 06:20:39;;;;;;;10.85;5.53;;;6.00;99.90;;;;;;5220072;28;20047;-76
2022/10/20 06:23:10;;;;;;;11.57;5.38;;;6.20;99.90;;;;;;5219785;28;20036;-74
2022/10/20 06:25:44;;;;;;;8.55;6.03;;;6.50;99.90;;;;;;5217905;28;20035;-78
2022/10/20 06:28:15;;;;;;;8.50;5.45;;;6.70;99.90;;;;;;5220805;28;20025;-77
2022/10/20 06:30:46;;;;;;;11.02;4.35;;;6.90;99.90;;;;;;5207643;28;20044;-76
2022/10/20 06:33:20;;;;;;;6.35;4.78;;;7.10;99.90;;;;;;5234153;28;20029;-76
2022/10/20 06:35:51;;;;;;;6.90;4.45;;;7.40;99.90;;;;;;5215093;28;20033;-76
2022/10/20 06:38:22;;;;;;;9.10;4.28;;;7.60;99.90;;;;;;5229487;28;20041;-76
2022/10/20 06:40:55;;;;;;;6.35;3.75;;;7.80;99.90;;;;;;5221865;28;20040;-76
2022/10/20 06:43:26;;;;;;;6.13;4.15;;;8.00;99.90;;;;;;5221023;28;20267;-77
2022/10/20 06:46:03;;;;;;;8.20;3.70;;;8.20;99.90;;;;;;5207572;28;20045;-76
2022/10/20 06:48:35;;;;;;;6.18;4.28;;;8.40;99.90;;;;;;5221235;28;20032;-76
2022/10/20 06:51:12;;;;;;;5.70;4.18;;;8.50;99.90;;;;;;5206307;28;20496;-76
2022/10/20 06:53:44;;;;;;;4.03;3.53;;;8.60;99.90;;;;;;5223178;28;20039;-76
2022/10/20 06:56:27;;;;;;;4.93;3.60;;;8.80;99.90;;;;;;5224770;28;20214;-77
2022/10/20 06:59:00;;;;;;;6.05;3.97;;;8.90;99.90;;;;;;5224924;28;20032;-76
2022/10/20 07:01:35;;;;;;;6.10;4.00;;;9.10;99.90;;;;;;5204533;28;20017;-77
2022/10/20 07:04:14;;;;;;;6.32;4.20;;;9.10;99.90;;;;;;5202318;28;20020;-77
2022/10/20 07:06:46;;;;;;;6.65;4.47;;;9.30;99.90;;;;;;5181580;28;20060;-77
2022/10/20 07:09:24;;;;;;;7.88;4.35;;;9.50;99.90;;;;;;5225096;28;20040;-76
2022/10/20 07:11:55;;;;;;;6.20;4.35;;;9.60;99.90;;;;;;5243806;28;20030;-76
2022/10/20 07:14:26;;;;;;;6.45;4.82;;;9.80;99.90;;;;;;5243807;28;20024;-76
2022/10/20 07:16:58;;;;;;;7.90;4.85;;;9.90;99.90;;;;;;5231661;28;20145;-77
2022/10/20 07:19:36;;;;;;;12.00;5.40;;;10.00;99.90;;;;;;5224986;28;20029;-77
2022/10/20 07:22:11;;;;;;;5.95;4.63;;;9.90;99.90;;;;;;5225895;28;20037;-77
2022/10/20 07:24:43;;;;;;;9.25;4.95;;;10.20;99.90;;;;;;5235306;28;20035;-77
2022/10/20 07:27:20;;;;;;;6.95;4.63;;;10.40;99.90;;;;;;5242702;28;20031;-77
2022/10/20 07:29:53;;;;;;;9.27;4.90;;;10.50;99.90;;;;;;5235654;28;20331;-77
2022/10/20 07:32:25;;;;;;;10.40;5.15;;;10.70;99.90;;;;;;5206446;28;20037;-76
2022/10/20 07:34:56;;;;;;;5.35;4.80;;;10.80;99.90;;;;;;5229945;28;20036;-77
2022/10/20 07:37:28;;;;;;;6.55;4.80;;;10.90;99.90;;;;;;5225636;28;20036;-77
2022/10/20 07:39:59;;;;;;;6.13;4.32;;;10.90;99.90;;;;;;5223024;28;20020;-76
2022/10/20 07:42:36;;;;;;;5.50;4.43;;;11.30;99.90;;;;;;5228867;28;20352;-77
2022/10/20 07:45:07;;;;;;;9.73;4.47;;;11.50;99.90;;;;;;5221177;28;20033;-75
2022/10/20 07:47:38;;;;;;;9.88;4.85;;;11.70;99.90;;;;;;5220176;28;20033;-77
2022/10/20 07:50:11;;;;;;;9.75;4.40;;;11.70;99.90;;;;;;5201974;28;20040;-77
2022/10/20 07:52:42;;;;;;;5.05;3.95;;;11.50;99.90;;;;;;5242950;28;20352;-76
2022/10/20 07:55:14;;;;;;;6.75;4.68;;;11.60;99.90;;;;;;5238457;28;20213;-77
2022/10/20 07:57:45;;;;;;;6.38;4.20;;;11.80;99.90;;;;;;5204197;28;20306;-77
2022/10/20 08:00:17;;;;;;;8.23;4.35;;;12.20;99.90;;;;;;5221309;28;20032;-78
2022/10/20 08:02:49;;;;;;;4.80;4.15;;;11.90;99.90;;;;;;5199261;28;20056;-75
2022/10/20 08:05:22;;;;;;;9.75;4.85;;;12.40;99.90;;;;;;5190229;28;20072;-76
2022/10/20 08:07:55;;;;;;;11.07;4.75;;;12.50;99.90;;;;;;5214515;28;20031;-76
2022/10/20 08:10:27;;;;;;;7.85;4.88;;;12.70;99.90;;;;;;5183340;28;20039;-76
2022/10/20 08:13:03;;;;;;;6.78;4.70;;;12.80;99.90;;;;;;5212047;28;20044;-76
2022/10/20 08:15:35;;;;;;;7.85;4.78;;;12.70;99.90;;;;;;5202841;28;20043;-75
2022/10/20 08:18:06;;;;;;;5.13;4.13;;;12.70;99.90;;;;;;5203951;28;20036;-75
2022/10/20 08:20:40;;;;;;;6.82;3.90;;;12.80;99.90;;;;;;5203035;28;20379;-75
2022/10/20 08:23:16;;;;;;;8.25;4.43;;;12.70;99.90;;;;;;5203701;28;20448;-77
2022/10/20 08:25:53;;;;;;;8.68;4.40;;;12.90;99.90;;;;;;5221373;28;20025;-78
2022/10/20 08:28:28;;;;;;;7.72;4.68;;;13.00;99.90;;;;;;5204048;28;20060;-75
2022/10/20 08:31:08;;;;;;;6.18;3.90;;;13.30;99.90;;;;;;5209341;28;20386;-77
2022/10/20 08:33:39;;;;;;;6.95;4.35;;;13.60;99.90;;;;;;5203083;28;20021;-77
2022/10/20 08:36:13;;;;;;;6.65;3.78;;;14.00;99.90;;;;;;5228086;28;20242;-77
2022/10/20 08:38:47;;;;;;;4.90;4.20;;;13.90;99.90;;;;;;5241594;28;20115;-77
2022/10/20 08:41:21;;;;;;;9.50;4.43;;;13.90;99.90;;;;;;5215362;28;20307;-77
2022/10/20 08:43:56;;;;;;;;;;;14.00;99.90;;;;;;5218636;28;20025;-77
2022/10/20 08:46:35;;;;;;;4.60;3.92;;;14.10;99.90;;;;;;5230972;28;19965;-77
2022/10/20 08:49:18;;;;;;;5.10;4.20;;;14.00;99.90;;;;;;5229660;28;20032;-75
2022/10/20 08:51:49;;;;;;;9.50;4.32;;;14.20;99.90;;;;;;5232268;28;20028;-75
2022/10/20 08:54:21;;;;;;;8.13;4.07;;;14.00;99.90;;;;;;5202744;28;20505;-76
2022/10/20 08:56:52;;;;;;;7.88;4.07;;;13.90;99.90;;;;;;5198228;28;20237;-76
2022/10/20 08:59:43;;;;;;;6.18;3.88;;;13.80;99.90;;;;;;5201738;28;20311;-75
2022/10/20 09:02:15;;;;;;;4.60;4.10;;;14.30;99.90;;;;;;5201259;28;20044;-76
2022/10/20 09:04:59;;;;;;;4.35;3.60;;;14.60;99.90;;;;;;5212938;28;20056;-75
2022/10/20 09:07:35;;;;;;;5.65;4.10;;;14.20;99.90;;;;;;5228049;28;20398;-75
2022/10/20 09:10:23;;;;;;;6.28;4.18;;;14.00;99.90;;;;;;5209428;28;20032;-75
2022/10/20 09:12:55;;;;;;;4.13;3.70;;;14.20;99.90;;;;;;5215094;28;20033;-75
2022/10/20 09:15:30;;;;;;;7.15;4.28;;;13.90;99.90;;;;;;5239768;28;20465;-75
2022/10/20 09:18:08;;;;;;;5.70;3.72;;;14.30;99.90;;;;;;5240125;28;20326;-76
2022/10/20 09:20:50;;;;;;;5.18;4.60;;;14.80;99.90;;;;;;5235199;28;20217;-76
2022/10/20 09:23:26;;;;;;;6.82;4.45;;;14.70;99.90;;;;;;5222237;28;20039;-76
2022/10/20 09:25:58;;;;;;;5.00;4.07;;;14.30;99.90;;;;;;5200416;28;20040;-76
2022/10/20 09:28:32;;;;;;;4.57;3.90;;;14.70;99.90;;;;;;5220704;28;20017;-75
2022/10/20 09:31:31;;;;;;;7.30;3.80;;;14.00;99.90;;;;;;5203340;28;20031;-75
2022/10/20 09:34:21;;;;;;;5.95;3.80;;;14.40;99.90;;;;;;5223267;28;20029;-75
2022/10/20 09:37:07;;;;;;;5.82;3.80;;;14.90;99.90;;;;;;5221218;28;20031;-75
2022/10/20 09:39:55;;;;;;;6.40;3.70;;;15.40;99.90;;;;;;5203862;28;20028;-75
2022/10/20 09:42:33;;;;;;;5.45;3.55;;;15.50;99.90;;;;;;5232639;28;20234;-75
2022/10/20 09:45:11;;;;;;;5.20;3.47;;;15.30;99.90;;;;;;5221274;28;20029;-75
2022/10/20 09:47:45;;;;;;;3.80;3.20;;;15.60;99.90;;;;;;5185599;28;20037;-75
2022/10/20 09:50:35;;;;;;;6.85;3.17;;;16.10;99.90;;;;;;5220594;28;20040;-76
2022/10/20 09:53:20;;;;;;;3.30;2.60;;;16.70;99.90;;;;;;5216385;28;20032;-76
2022/10/20 09:55:51;;;;;;;;;;;17.00;99.90;;;;;;5199825;28;20035;-76
2022/10/20 09:58:27;;;;;;;3.67;2.85;;;16.80;99.90;;;;;;5219793;28;20117;-76
2022/10/20 10:01:13;;;;;;;3.33;2.80;;;16.10;99.90;;;;;;5228350;28;20024;-75
2022/10/20 10:03:51;;;;;;;2.90;2.70;;;17.10;99.90;;;;;;5221530;28;20036;-76
2022/10/20 10:06:40;;;;;;;4.07;3.03;;;17.10;99.90;;;;;;5202650;28;20272;-75
2022/10/20 10:09:30;;;;;;;3.47;2.80;;;17.20;99.90;;;;;;5208931;28;20452;-76
2022/10/20 10:12:11;;;;;;;6.03;2.90;;;16.50;99.90;;;;;;5225768;28;20366;-76
2022/10/20 10:14:54;;;;;;;3.45;3.08;;;16.50;99.90;;;;;;5225981;28;20097;-76
2022/10/20 10:17:38;;;;;;;4.47;3.15;;;17.10;99.90;;;;;;5241590;28;20020;-75
2022/10/20 10:20:09;;;;;;;5.15;3.28;;;17.50;99.90;;;;;;5241395;28;20391;-76
2022/10/20 10:22:41;;;;;;;4.28;2.83;;;17.10;99.90;;;;;;5202944;28;20570;-76
2022/10/20 10:25:18;;;;;;;3.55;3.10;;;17.90;99.90;;;;;;5222805;28;20033;-76
2022/10/20 10:28:19;;;;;;;5.22;2.63;;;18.20;99.90;;;;;;5223529;28;20017;-75
2022/10/20 10:31:06;;;;;;;4.03;3.13;;;18.50;99.90;;;;;;5217666;28;20316;-76
2022/10/20 10:33:37;;;;;;;6.32;3.20;;;17.60;99.90;;;;;;5222789;28;20041;-76
2022/10/20 10:36:24;;;;;;;5.50;3.40;;;17.50;99.90;;;;;;5223678;28;20020;-76
2022/10/20 10:39:02;;;;;;;5.93;2.63;;;17.70;99.90;;;;;;5224754;28;20123;-76
2022/10/20 10:41:45;;;;;;;3.38;2.88;;;17.60;99.90;;;;;;5205155;28;20067;-76
2022/10/20 10:44:49;;;;;;;3.65;3.05;;;17.10;99.90;;;;;;5221953;28;20306;-76
2022/10/20 10:47:23;;;;;;;4.13;2.90;;;17.10;99.90;;;;;;5219842;28;20020;-75
2022/10/20 10:50:33;;;;;;;5.30;2.92;;;18.00;99.90;;;;;;5215547;28;20036;-75
2022/10/20 10:53:17;;;;;;;4.38;2.88;;;18.50;99.90;;;;;;5203514;28;20029;-76
2022/10/20 10:56:06;;;;;;;3.15;2.85;;;18.60;99.90;;;;;;5191215;28;20040;-75
2022/10/20 10:58:43;;;;;;;6.53;2.85;;;18.60;99.90;;;;;;5222935;28;20037;-75
2022/10/20 11:01:46;;;;;;;3.38;3.03;;;18.70;99.90;;;;;;5222621;28;20086;-75
2022/10/20 11:04:38;;;;;;;4.72;2.70;;;19.40;99.90;;;;;;5212306;28;20336;-76
2022/10/20 11:07:19;;;;;;;6.38;3.03;;;19.70;99.90;;;;;;5222227;28;20032;-77
2022/10/20 11:10:14;;;;;;;3.28;2.97;;;19.60;99.90;;;;;;5203536;28;20253;-74
2022/10/20 11:13:00;;;;;;;3.60;3.00;;;19.70;99.90;;;;;;5188473;28;20075;-74
2022/10/20 11:15:38;;;;;;;5.50;2.72;;;20.00;99.90;;;;;;5202842;28;20244;-75
2022/10/20 11:18:37;;;;;;;4.43;2.63;;;20.30;99.90;;;;;;5203339;28;20039;-74
2022/10/20 11:21:33;;;;;;;9.63;3.30;;;19.70;99.90;;;;;;5207727;28;20052;-75
2022/10/20 11:24:23;;;;;;;4.15;2.55;;;20.70;99.90;;;;;;5194547;28;20017;-76
2022/10/20 11:27:12;;;;;;;4.25;2.97;;;21.90;99.90;;;;;;5223019;28;20028;-76
2022/10/20 11:29:50;;;;;;;3.13;2.83;;;20.20;99.90;;;;;;5222494;28;20039;-76
2022/10/20 11:32:33;;;;;;;3.80;3.00;;;19.20;99.90;;;;;;5222808;28;20040;-77
2022/10/20 11:35:45;;;;;;;6.13;2.60;;;17.90;99.90;;;;;;5222275;28;20025;-74
2022/10/20 11:38:30;;;;;;;2.97;2.55;;;18.90;99.90;;;;;;5158181;28;20030;-76
2022/10/20 11:41:07;;;;;;;2.50;2.30;;;18.50;99.90;;;;;;5158016;28;20224;-74
2022/10/20 11:44:03;;;;;;;4.28;2.60;;;19.20;99.90;;;;;;5140890;28;20080;-75
2022/10/20 11:46:48;;;;;;;4.90;2.97;;;19.40;99.90;;;;;;5147349;28;20228;-75
2022/10/20 11:49:23;;;;;;;3.85;2.83;;;19.70;99.90;;;;;;5163827;28;20322;-75
2022/10/20 11:52:20;;;;;;;2.45;2.22;;;19.60;99.90;;;;;;5158491;28;20255;-76
2022/10/20 11:55:15;;;;;;;3.38;2.42;;;19.90;99.90;;;;;;5158044;28;20382;-74
2022/10/20 11:58:08;;;;;;;3.95;3.03;;;20.10;99.90;;;;;;5157356;28;20056;-76
2022/10/20 12:01:02;;;;;;;6.03;2.95;;;20.90;99.90;;;;;;5158113;28;20034;-76
2022/10/20 12:04:03;;;;;;;3.25;2.47;;;21.00;99.90;;;;;;5157800;28;20372;-74
2022/10/20 12:06:54;;;;;;;4.75;2.42;;;20.10;99.90;;;;;;5155448;28;20106;-76
2022/10/20 12:09:54;;;;;;;3.08;2.53;;;20.70;99.90;;;;;;5137743;28;20107;-74
2022/10/20 12:12:40;;;;;;;8.82;2.80;;;21.20;99.90;;;;;;5166028;28;20059;-76
2022/10/20 12:15:26;;;;;;;3.38;2.30;;;21.20;99.90;;;;;;5218070;28;20033;-75
2022/10/20 12:18:14;;;;;;;3.05;2.45;;;20.50;99.90;;;;;;5219750;28;20124;-74
2022/10/20 12:20:51;;;;;;;5.32;2.58;;;20.40;99.90;;;;;;5221628;28;20035;-76
2022/10/20 12:23:52;;;;;;;2.55;2.08;;;19.80;99.90;;;;;;5221718;28;20037;-74
2022/10/20 12:26:32;;;;;;;8.40;2.53;;;19.60;99.90;;;;;;5220517;28;20234;-74
2022/10/20 12:29:34;;;;;;;3.83;2.70;;;19.30;99.90;;;;;;5221698;28;20257;-74
2022/10/20 12:32:28;;;;;;;5.05;3.00;;;18.50;99.90;;;;;;5221226;28;20311;-74
2022/10/20 12:35:04;;;;;;;5.07;2.60;;;18.40;99.90;;;;;;5220399;28;20217;-76
2022/10/20 12:37:39;;;;;;;3.65;2.22;;;18.90;99.90;;;;;;5202531;28;20062;-75
2022/10/20 12:40:28;;;;;;;2.55;2.25;;;19.80;99.90;;;;;;5220709;28;20033;-76
2022/10/20 12:43:00;;;;;;;5.55;2.42;;;20.60;99.90;;;;;;5222597;28;20534;-74
2022/10/20 12:45:40;;;;;;;6.32;2.47;;;19.10;99.90;;;;;;5221860;28;20025;-74
2022/10/20 12:48:21;;;;;;;2.92;2.03;;;19.20;99.90;;;;;;5219658;28;20031;-74
2022/10/20 12:51:00;;;;;;;3.45;2.38;;;18.70;99.90;;;;;;5201755;28;20029;-74
2022/10/20 12:53:34;;;;;;;2.60;2.40;;;17.70;99.90;;;;;;5218625;28;20035;-75
2022/10/20 12:56:11;;;;;;;6.07;2.60;;;18.40;99.90;;;;;;5220355;28;20344;-76
2022/10/20 12:59:20;;;;;;;6.05;2.47;;;18.50;99.90;;;;;;5221003;28;20213;-75
2022/10/20 13:02:09;;;;;;;3.00;2.30;;;18.90;99.90;;;;;;5220634;28;20045;-75
2022/10/20 13:05:14;;;;;;;4.15;2.90;;;18.70;99.90;;;;;;5213766;28;20051;-75
2022/10/20 13:07:48;;;;;;;3.72;2.67;;;18.90;99.90;;;;;;5208955;28;20051;-76
2022/10/20 13:10:34;;;;;;;5.07;2.70;;;19.20;99.90;;;;;;5220895;28;20222;-75
2022/10/20 13:13:08;;;;;;;3.08;2.13;;;19.70;99.90;;;;;;5219377;28;20028;-75
2022/10/20 13:15:48;;;;;;;2.83;2.63;;;19.70;99.90;;;;;;5221044;28;20016;-76
2022/10/20 13:18:38;;;;;;;2.75;2.17;;;19.20;99.90;;;;;;5202877;28;20423;-75
2022/10/20 13:21:31;;;;;;;6.25;2.60;;;19.40;99.90;;;;;;5221654;28;20033;-76
2022/10/20 13:24:12;;;;;;;3.53;2.30;;;20.10;99.90;;;;;;5165573;28;20338;-76
2022/10/20 13:27:00;;;;;;;4.72;2.55;;;20.00;99.90;;;;;;5182236;28;20025;-74
2022/10/20 13:29:42;;;;;;;2.90;2.65;;;19.90;99.90;;;;;;5198604;28;20230;-73
2022/10/20 13:32:41;;;;;;;7.28;2.38;;;19.60;99.90;;;;;;5219266;28;20024;-76
2022/10/20 13:35:26;;;;;;;6.07;3.60;;;19.20;99.90;;;;;;5200437;28;20037;-75
2022/10/20 13:38:15;;;;;;;2.47;2.20;;;18.80;99.90;;;;;;5219766;28;20200;-76
2022/10/20 13:41:35;;;;;;;2.90;2.35;;;19.20;99.90;;;;;;5220333;28;20336;-74
2022/10/20 13:44:27;;;;;;;3.78;2.58;;;19.70;99.90;;;;;;5140340;28;20042;-76
2022/10/20 13:47:03;;;;;;;5.38;2.47;;;18.80;99.90;;;;;;5163695;28;20298;-74
2022/10/20 13:49:53;;;;;;;2.60;2.03;;;19.00;99.90;;;;;;5162401;28;20413;-75
2022/10/20 13:52:28;;;;;;;3.15;2.10;;;19.20;99.90;;;;;;5190091;28;20029;-74